createdAt,value
2022-08-22T00:00:13.674Z,9.8
2022-08-22T00:03:05.285Z,5.5
2022-08-22T00:25:26.303Z,11.0
2022-08-22T00:30:08.780Z,11.5
2022-08-22T00:35:00.812Z,11.7
2022-08-22T00:40:03.820Z,11.1
2022-08-22T00:45:16.153Z,11.0
2022-08-22T00:50:00.785Z,10.8
2022-08-22T00:55:00.817Z,11.1
2022-08-22T01:00:16.122Z,10.5
2022-08-22T01:05:00.794Z,10.6
2022-08-22T01:10:00.822Z,10.9
2022-08-22T01:15:04.771Z,11.3
2022-08-22T01:20:00.882Z,11.2
2022-08-22T01:25:26.395Z,12.4
2022-08-22T01:30:13.445Z,12.8
2022-08-22T01:35:00.921Z,12.6
2022-08-22T01:40:00.944Z,12.6
2022-08-22T01:45:16.695Z,12.2
2022-08-22T01:50:00.823Z,11.4
2022-08-22T01:55:00.854Z,11.4
2022-08-22T02:00:01.625Z,11.2
2022-08-22T02:05:00.843Z,11.2
2022-08-22T02:10:00.854Z,11.2
2022-08-22T02:15:07.352Z,11.4
2022-08-22T02:20:00.833Z,11.9
2022-08-22T02:25:00.928Z,12.7
2022-08-22T02:30:07.581Z,12.8
2022-08-22T02:35:00.849Z,13.2
2022-08-22T02:40:00.936Z,13.8
2022-08-22T02:45:11.970Z,13.7
2022-08-22T02:50:00.875Z,13.6
2022-08-22T02:55:00.888Z,14.0
2022-08-22T03:05:16.159Z,14.5
2022-08-22T03:10:00.884Z,14.6
2022-08-22T03:15:06.889Z,14.2
2022-08-22T03:20:00.910Z,14.4
2022-08-22T03:30:10.219Z,15.0
2022-08-22T03:35:00.864Z,15.2
2022-08-22T03:40:01.073Z,15.8
2022-08-22T03:45:16.199Z,15.8
2022-08-22T03:50:00.834Z,15.1
2022-08-22T03:55:00.881Z,15.1
2022-08-22T04:00:07.456Z,15.4
2022-08-22T04:05:00.840Z,16.2
2022-08-22T04:10:00.872Z,16.4
2022-08-22T04:15:11.826Z,17.5
2022-08-22T04:20:00.880Z,16.8
2022-08-22T04:25:08.119Z,16.4
2022-08-22T04:30:08.594Z,15.4
2022-08-22T04:35:00.877Z,14.6
2022-08-22T04:40:00.986Z,14.3
2022-08-22T04:45:08.501Z,14.4
2022-08-22T04:50:00.883Z,14.0
2022-08-22T04:55:16.655Z,14.8
2022-08-22T05:00:05.506Z,15.7
2022-08-22T05:05:00.858Z,16.2
2022-08-22T05:10:27.991Z,14.0
2022-08-22T05:15:09.887Z,14.7
2022-08-22T05:20:00.893Z,14.9
2022-08-22T05:25:04.836Z,16.2
2022-08-22T05:30:04.960Z,16.0
2022-08-22T05:35:00.899Z,18.6
2022-08-22T05:40:02.031Z,19.0
2022-08-22T05:45:02.193Z,19.9
2022-08-22T05:50:00.907Z,19.3
2022-08-22T05:55:00.923Z,20.0
2022-08-22T06:00:04.271Z,20.7
2022-08-22T06:05:00.928Z,20.9
2022-08-22T06:10:00.914Z,21.5
2022-08-22T06:15:12.681Z,21.7
2022-08-22T06:20:00.918Z,21.9
2022-08-22T06:25:01.048Z,22.2
2022-08-22T06:30:04.214Z,22.8
2022-08-22T06:35:02.015Z,21.5
2022-08-22T06:40:01.044Z,21.6
2022-08-22T06:45:06.380Z,20.9
2022-08-22T06:50:04.310Z,19.6
2022-08-22T06:55:00.925Z,19.1
2022-08-22T07:00:05.300Z,19.0
2022-08-22T07:05:00.986Z,18.4
2022-08-22T07:15:16.254Z,18.6
2022-08-22T07:20:07.063Z,18.9
2022-08-22T07:25:00.943Z,16.8
2022-08-22T07:30:10.810Z,16.5
2022-08-22T07:35:07.742Z,16.8
2022-08-22T07:40:01.018Z,17.2
2022-08-22T07:45:06.178Z,17.1
2022-08-22T07:50:00.907Z,19.5
2022-08-22T07:55:00.938Z,20.3
2022-08-22T08:00:05.171Z,20.5
2022-08-22T08:05:00.954Z,19.4
2022-08-22T08:10:11.215Z,19.1
2022-08-22T08:15:02.850Z,18.2
2022-08-22T08:20:04.796Z,17.8
2022-08-22T08:25:02.059Z,17.2
2022-08-22T08:30:03.886Z,17.6
2022-08-22T08:35:03.843Z,17.8
2022-08-22T08:40:08.042Z,17.5
2022-08-22T08:45:16.259Z,17.6
2022-08-22T08:50:10.636Z,17.5
2022-08-22T09:00:06.254Z,17.2
2022-08-22T09:05:19.758Z,18.5
2022-08-22T09:10:01.277Z,16.9
2022-08-22T09:15:14.617Z,15.8
2022-08-22T09:20:19.751Z,13.9
2022-08-22T09:25:06.490Z,11.9
2022-08-22T09:30:11.946Z,9.1
2022-08-22T09:35:00.966Z,8.1
2022-08-22T09:40:01.050Z,7.9
2022-08-22T10:10:01.198Z,4.7
2022-08-22T10:16:01.162Z,4.1
2022-08-22T10:21:01.231Z,4.4
2022-08-22T10:26:01.359Z,4.9
2022-08-22T10:31:08.358Z,5.2
2022-08-22T10:36:05.368Z,5.6
2022-08-22T10:41:10.068Z,6.5
2022-08-22T10:46:13.803Z,6.5
2022-08-22T10:51:09.087Z,6.4
2022-08-22T10:56:01.675Z,6.6
2022-08-22T11:06:06.116Z,6.6
2022-08-22T11:11:01.958Z,7.2
2022-08-22T11:16:04.578Z,7.9
2022-08-22T11:26:05.381Z,8.0
2022-08-22T11:31:02.523Z,8.3
2022-08-22T11:41:01.281Z,7.8
2022-08-22T11:46:02.264Z,7.4
2022-08-22T12:01:18.408Z,6.7
2022-08-22T12:06:01.176Z,6.7
2022-08-22T12:16:01.160Z,6.6
2022-08-22T12:21:01.177Z,6.7
2022-08-22T12:26:01.296Z,6.8
2022-08-22T12:31:14.928Z,7.1
2022-08-22T12:36:01.134Z,7.0
2022-08-22T12:41:08.414Z,7.9
2022-08-22T12:46:01.613Z,8.6
2022-08-22T12:51:18.273Z,9.2
2022-08-22T12:56:05.646Z,8.7
2022-08-22T13:01:01.233Z,9.0
2022-08-22T13:06:01.161Z,9.2
2022-08-22T13:11:01.524Z,8.8
2022-08-22T13:16:01.164Z,8.6
2022-08-22T13:21:04.396Z,9.3
2022-08-22T13:26:01.378Z,9.8
2022-08-22T13:41:01.434Z,10.2
2022-08-22T13:46:02.556Z,10.2
2022-08-22T13:51:02.194Z,9.9
2022-08-22T13:56:01.170Z,9.6
2022-08-22T14:01:11.629Z,9.8
2022-08-22T14:11:07.068Z,9.3
2022-08-22T14:16:04.970Z,9.0
2022-08-22T14:21:01.209Z,8.7
2022-08-22T14:26:01.696Z,8.9
2022-08-22T14:31:05.891Z,8.7
2022-08-22T14:36:10.105Z,7.9
2022-08-22T14:46:02.426Z,8.0
2022-08-22T14:51:04.403Z,7.4
2022-08-22T14:56:18.395Z,7.7
2022-08-22T15:01:01.155Z,8.1
2022-08-22T15:06:01.155Z,7.7
2022-08-22T15:11:08.878Z,7.2
2022-08-22T15:16:09.512Z,7.2
2022-08-22T15:21:01.160Z,6.8
2022-08-22T15:26:03.824Z,6.6
2022-08-22T15:31:04.052Z,6.9
2022-08-22T15:36:01.175Z,7.2
2022-08-22T15:41:01.217Z,7.0
2022-08-22T15:46:01.726Z,7.2
2022-08-22T15:51:09.627Z,7.2
2022-08-22T15:56:05.460Z,6.8
2022-08-22T16:06:01.169Z,7.0
2022-08-22T16:11:16.054Z,6.4
2022-08-22T16:16:10.721Z,6.2
2022-08-22T16:21:01.236Z,6.6
2022-08-22T16:26:01.190Z,6.0
2022-08-22T16:37:01.193Z,6.0
2022-08-22T16:42:16.491Z,6.2
2022-08-22T16:47:16.494Z,6.1
2022-08-22T16:57:01.156Z,5.7
2022-08-22T17:02:01.164Z,5.8
2022-08-22T17:07:01.175Z,5.5
2022-08-22T17:17:11.720Z,5.2
2022-08-22T17:22:01.216Z,5.3
2022-08-22T17:27:01.164Z,5.0
2022-08-22T17:32:01.166Z,4.9
2022-08-22T17:37:09.396Z,4.5
2022-08-22T17:42:21.417Z,4.8
2022-08-22T17:47:01.149Z,4.7
2022-08-22T17:52:01.151Z,4.4
2022-08-22T17:57:06.374Z,4.5
2022-08-22T18:02:01.160Z,4.6
2022-08-22T18:07:01.155Z,4.4
2022-08-22T18:12:01.143Z,4.3
2022-08-22T18:17:12.244Z,5.1
2022-08-22T18:22:05.845Z,5.1
2022-08-22T18:27:01.211Z,4.6
2022-08-22T18:32:01.166Z,4.8
2022-08-22T18:37:01.183Z,5.0
2022-08-22T18:42:01.245Z,4.8
2022-08-22T18:47:10.204Z,5.4
2022-08-22T18:52:01.155Z,6.0
2022-08-22T18:57:10.398Z,6.2
2022-08-22T19:02:01.343Z,6.5
2022-08-22T19:07:16.483Z,6.9
2022-08-22T19:12:11.778Z,6.7
2022-08-22T19:22:01.161Z,7.0
2022-08-22T19:32:01.164Z,6.1
2022-08-22T19:37:01.279Z,5.9
2022-08-22T19:42:01.118Z,6.0
2022-08-22T19:47:01.160Z,5.8
2022-08-22T19:52:01.171Z,6.3
2022-08-22T19:57:01.159Z,6.7
2022-08-22T20:07:01.160Z,6.4
2022-08-22T20:12:01.163Z,6.6
2022-08-22T20:17:05.366Z,6.6
2022-08-22T20:22:02.828Z,6.6
2022-08-22T20:27:15.578Z,6.9
2022-08-22T20:32:02.837Z,7.3
2022-08-22T20:43:01.795Z,6.7
2022-08-22T20:48:01.480Z,6.2
2022-08-22T20:53:01.155Z,5.5
2022-08-22T20:58:01.674Z,5.5
2022-08-22T21:03:01.158Z,5.6
2022-08-22T21:08:01.432Z,5.7
2022-08-22T21:18:01.733Z,5.9
2022-08-22T21:23:01.149Z,5.7
2022-08-22T21:28:01.625Z,5.9
2022-08-22T21:33:02.009Z,5.6
2022-08-22T21:43:01.257Z,5.8
2022-08-22T21:48:01.565Z,6.3
2022-08-22T21:53:01.262Z,5.5
2022-08-22T21:58:01.412Z,5.4
2022-08-22T22:03:03.092Z,5.8
2022-08-22T22:08:01.749Z,5.5
2022-08-22T22:13:01.158Z,5.5
2022-08-22T22:18:02.842Z,6.3
2022-08-22T22:23:01.280Z,7.2
2022-08-22T22:28:01.800Z,7.2
2022-08-22T22:33:01.258Z,7.9
2022-08-22T22:38:02.983Z,7.5
2022-08-22T22:48:01.620Z,7.1
2022-08-22T22:54:02.063Z,7.9
2022-08-22T22:59:14.829Z,8.1
2022-08-22T23:04:06.689Z,8.5
2022-08-22T23:09:01.158Z,8.8
2022-08-22T23:14:01.765Z,9.2
2022-08-22T23:19:01.157Z,8.7
2022-08-22T23:24:01.174Z,8.6
2022-08-22T23:29:01.271Z,9.4
2022-08-22T23:34:01.129Z,10.3
2022-08-22T23:39:01.761Z,11.1
2022-08-22T23:44:01.190Z,11.4
2022-08-22T23:49:01.163Z,12.3
2022-08-22T23:54:01.169Z,12.0
2022-08-22T23:59:09.342Z,11.2
